createdAt,value
2023-02-01T00:04:03.119Z,12.48
2023-02-01T00:09:00.383Z,13.82
2023-02-01T00:13:58.481Z,11.23
2023-02-01T00:19:08.969Z,12.70
2023-02-01T00:29:08.065Z,8.98
2023-02-01T00:34:05.419Z,7.88
2023-02-01T00:39:02.725Z,6.20
2023-02-01T00:43:59.957Z,7.20
2023-02-01T00:48:58.148Z,6.25
2023-02-01T00:53:55.906Z,6.13
2023-02-01T00:58:53.123Z,6.38
2023-02-01T01:04:00.678Z,6.05
2023-02-01T01:09:00.424Z,6.78
2023-02-01T01:13:59.851Z,6.18
2023-02-01T01:18:58.317Z,5.30
2023-02-01T01:23:55.992Z,6.63
2023-02-01T01:28:56.085Z,4.78
2023-02-01T01:33:54.819Z,5.32
2023-02-01T01:38:52.685Z,5.00
2023-02-01T01:43:54.941Z,5.13
2023-02-01T01:49:02.592Z,4.60
2023-02-01T01:54:23.147Z,5.50
2023-02-01T01:59:23.185Z,5.95
2023-02-01T02:04:21.120Z,5.05
2023-02-01T02:09:18.744Z,4.53
2023-02-01T02:14:20.143Z,4.85
2023-02-01T02:19:23.608Z,5.25
2023-02-01T02:24:48.803Z,6.07
2023-02-01T02:29:58.028Z,4.13
2023-02-01T02:35:17.405Z,4.53
2023-02-01T02:40:36.355Z,5.70
2023-02-01T02:46:06.276Z,4.53
2023-02-01T02:51:46.564Z,6.40
2023-02-01T02:57:02.593Z,8.05
2023-02-01T03:02:18.801Z,7.13
2023-02-01T03:07:56.380Z,7.72
2023-02-01T03:12:58.529Z,8.70
2023-02-01T03:17:58.972Z,8.05
2023-02-01T03:22:58.627Z,5.97
2023-02-01T03:28:10.023Z,6.88
2023-02-01T03:33:38.691Z,7.00
2023-02-01T03:38:53.590Z,8.65
2023-02-01T03:44:13.652Z,6.00
2023-02-01T03:49:14.378Z,6.15
2023-02-01T03:54:16.113Z,5.60
2023-02-01T03:59:15.235Z,5.95
2023-02-01T04:04:21.006Z,4.85
2023-02-01T04:09:18.800Z,5.25
2023-02-01T04:14:16.091Z,5.32
2023-02-01T04:19:13.357Z,3.85
2023-02-01T04:24:11.706Z,6.10
2023-02-01T04:29:11.361Z,6.55
2023-02-01T04:34:08.663Z,6.88
2023-02-01T04:44:07.677Z,6.57
2023-02-01T04:49:05.963Z,7.65
2023-02-01T04:54:06.740Z,7.47
2023-02-01T04:59:06.170Z,6.97
2023-02-01T05:04:04.325Z,8.00
2023-02-01T05:09:03.053Z,6.40
2023-02-01T05:14:02.655Z,7.30
2023-02-01T05:24:20.901Z,7.78
2023-02-01T05:29:18.854Z,6.65
2023-02-01T05:34:17.054Z,6.55
2023-02-01T05:39:14.425Z,5.72
2023-02-01T05:44:12.906Z,6.07
2023-02-01T05:49:10.208Z,6.45
2023-02-01T05:54:09.340Z,6.45
2023-02-01T05:59:06.751Z,6.20
2023-02-01T06:04:04.507Z,6.20
2023-02-01T06:09:05.320Z,5.93
2023-02-01T06:14:02.895Z,6.75
2023-02-01T06:19:00.515Z,6.60
2023-02-01T06:23:58.916Z,6.65
2023-02-01T06:28:56.579Z,7.10
2023-02-01T06:33:54.780Z,7.32
2023-02-01T06:38:52.294Z,7.68
2023-02-01T06:43:49.731Z,8.15
2023-02-01T06:48:47.191Z,8.15
2023-02-01T06:53:47.385Z,8.77
2023-02-01T06:58:45.385Z,8.27
2023-02-01T07:03:52.265Z,8.90
2023-02-01T07:08:50.191Z,8.65
2023-02-01T07:13:47.557Z,10.80
2023-02-01T07:18:45.127Z,12.13
2023-02-01T07:23:42.554Z,11.35
2023-02-01T07:28:39.875Z,9.18
2023-02-01T07:33:40.676Z,11.10
2023-02-01T07:38:38.286Z,9.55
2023-02-01T07:43:36.570Z,7.88
2023-02-01T07:48:37.372Z,8.10
2023-02-01T07:53:35.407Z,7.95
2023-02-01T07:58:38.968Z,8.02
2023-02-01T08:03:36.473Z,8.07
2023-02-01T08:08:36.710Z,7.97
2023-02-01T08:13:37.372Z,8.25
2023-02-01T08:18:36.698Z,8.05
2023-02-01T08:23:40.617Z,6.57
2023-02-01T08:28:42.749Z,6.72
2023-02-01T08:33:43.624Z,5.38
2023-02-01T08:38:41.650Z,9.68
2023-02-01T08:43:39.265Z,6.40
2023-02-01T08:48:37.461Z,6.20
2023-02-01T08:53:35.669Z,5.35
2023-02-01T08:58:33.172Z,5.47
2023-02-01T09:03:30.503Z,5.25
2023-02-01T09:08:31.483Z,6.03
2023-02-01T09:13:35.226Z,4.85
2023-02-01T09:18:32.512Z,4.22
2023-02-01T09:23:33.197Z,5.70
2023-02-01T09:28:30.824Z,7.00
2023-02-01T09:33:38.440Z,4.57
2023-02-01T09:38:44.588Z,4.85
2023-02-01T09:44:01.107Z,4.53
2023-02-01T09:49:22.457Z,6.38
2023-02-01T09:54:30.849Z,4.70
2023-02-01T09:59:42.170Z,4.93
2023-02-01T10:04:39.621Z,4.18
2023-02-01T10:09:51.900Z,5.85
2023-02-01T10:15:16.713Z,4.15
2023-02-01T10:20:28.172Z,4.45
2023-02-01T10:25:57.205Z,3.95
2023-02-01T10:30:59.078Z,3.67
2023-02-01T10:36:14.486Z,3.30
2023-02-01T10:41:22.129Z,4.32
2023-02-01T10:46:19.618Z,3.28
2023-02-01T10:51:23.636Z,3.70
2023-02-01T10:56:29.217Z,4.25
2023-02-01T11:01:40.883Z,4.53
2023-02-01T11:06:44.860Z,4.32
2023-02-01T11:11:48.479Z,3.65
2023-02-01T11:17:20.155Z,3.65
2023-02-01T11:22:18.927Z,3.80
2023-02-01T11:27:27.209Z,4.70
2023-02-01T11:32:26.329Z,3.92
2023-02-01T11:37:30.289Z,3.10
2023-02-01T11:42:34.693Z,3.40
2023-02-01T11:47:42.270Z,4.30
2023-02-01T11:53:14.004Z,6.30
2023-02-01T11:58:11.373Z,3.90
2023-02-01T12:03:20.629Z,3.60
2023-02-01T12:08:36.509Z,5.50
2023-02-01T12:13:56.844Z,3.90
2023-02-01T12:19:22.854Z,4.20
2023-02-01T12:24:20.526Z,3.33
2023-02-01T12:29:53.424Z,3.28
2023-02-01T12:35:02.776Z,3.20
2023-02-01T12:40:26.507Z,2.77
2023-02-01T12:45:40.397Z,3.78
2023-02-01T12:50:54.539Z,3.25
2023-02-01T12:55:55.740Z,3.05
2023-02-01T13:01:10.434Z,2.95
2023-02-01T13:06:20.245Z,3.53
2023-02-01T13:11:42.541Z,3.83
2023-02-01T13:16:47.693Z,4.00
2023-02-01T13:21:51.255Z,3.50
2023-02-01T13:26:48.775Z,3.47
2023-02-01T13:32:22.131Z,3.45
2023-02-01T13:38:01.920Z,3.80
2023-02-01T13:43:13.536Z,4.63
2023-02-01T13:48:30.777Z,4.20
2023-02-01T13:53:35.152Z,3.42
2023-02-01T13:58:38.901Z,3.10
2023-02-01T14:03:48.132Z,3.33
2023-02-01T14:09:14.251Z,3.30
2023-02-01T14:14:18.028Z,3.03
2023-02-01T14:19:32.852Z,4.10
2023-02-01T14:24:35.741Z,4.00
2023-02-01T14:29:38.471Z,5.03
2023-02-01T14:34:49.442Z,4.47
2023-02-01T14:39:46.602Z,4.55
2023-02-01T14:44:59.005Z,4.15
2023-02-01T14:50:03.457Z,4.35
2023-02-01T14:55:06.741Z,5.43
2023-02-01T15:00:17.508Z,5.35
2023-02-01T15:05:35.510Z,8.63
2023-02-01T15:10:40.364Z,7.22
2023-02-01T15:15:37.814Z,4.90
2023-02-01T15:20:35.133Z,5.15
2023-02-01T15:25:39.585Z,5.70
2023-02-01T15:30:38.110Z,7.03
2023-02-01T15:35:44.720Z,4.97
2023-02-01T15:40:56.045Z,6.75
2023-02-01T15:45:56.728Z,6.40
2023-02-01T15:50:56.813Z,6.97
2023-02-01T16:00:59.951Z,7.90
2023-02-01T16:06:03.690Z,6.63
2023-02-01T16:11:23.727Z,8.35
2023-02-01T16:16:21.087Z,11.93
2023-02-01T16:21:18.466Z,9.40
2023-02-01T16:26:15.883Z,9.43
2023-02-01T16:31:24.285Z,9.75
2023-02-01T16:36:22.668Z,9.68
2023-02-01T16:41:21.802Z,8.63
2023-02-01T16:46:23.696Z,14.30
2023-02-01T16:51:36.599Z,12.93
2023-02-01T16:56:38.348Z,13.77
2023-02-01T17:01:37.789Z,15.35
2023-02-01T17:06:38.045Z,14.33
2023-02-01T17:11:35.873Z,21.45
2023-02-01T17:16:36.216Z,15.30
2023-02-01T17:21:43.093Z,14.68
2023-02-01T17:26:41.023Z,15.75
2023-02-01T17:31:41.997Z,15.50
2023-02-01T17:36:40.315Z,14.95
2023-02-01T17:41:38.372Z,14.02
2023-02-01T17:46:38.446Z,13.80
2023-02-01T17:56:33.878Z,12.75
2023-02-01T18:01:31.543Z,12.30
2023-02-01T18:06:42.020Z,14.02
2023-02-01T18:16:37.394Z,15.85
2023-02-01T18:21:37.628Z,11.52
2023-02-01T18:26:37.665Z,11.95
2023-02-01T18:31:50.805Z,11.00
2023-02-01T18:36:49.600Z,14.75
2023-02-01T18:42:02.264Z,11.57
2023-02-01T18:47:00.817Z,11.68
2023-02-01T18:51:58.211Z,10.75
2023-02-01T18:56:55.407Z,10.38
2023-02-01T19:01:52.789Z,11.25
2023-02-01T19:06:51.251Z,10.30
2023-02-01T19:11:48.466Z,12.00
2023-02-01T19:16:45.696Z,11.60
2023-02-01T19:21:42.879Z,11.65
2023-02-01T19:26:42.051Z,10.82
2023-02-01T19:31:39.704Z,12.73
2023-02-01T19:36:42.459Z,11.57
2023-02-01T19:41:40.029Z,10.50
2023-02-01T19:46:37.696Z,10.98
2023-02-01T19:51:35.396Z,11.85
2023-02-01T19:56:32.901Z,9.20
2023-02-01T20:01:29.675Z,19.25
2023-02-01T20:06:27.234Z,9.63
2023-02-01T20:11:25.939Z,9.43
2023-02-01T20:16:23.761Z,10.82
2023-02-01T20:21:23.852Z,9.30
2023-02-01T20:31:25.246Z,8.18
2023-02-01T20:36:22.768Z,8.57
2023-02-01T20:41:20.663Z,9.15
2023-02-01T20:46:18.656Z,8.13
2023-02-01T20:51:18.652Z,9.20
2023-02-01T20:56:16.588Z,9.75
2023-02-01T21:01:14.757Z,8.90
2023-02-01T21:06:13.500Z,10.32
2023-02-01T21:11:13.538Z,9.65
2023-02-01T21:16:13.295Z,8.75
2023-02-01T21:21:13.090Z,9.70
2023-02-01T21:26:11.478Z,12.27
2023-02-01T21:31:09.530Z,10.98
2023-02-01T21:36:07.448Z,10.52
2023-02-01T21:41:24.226Z,10.85
2023-02-01T21:46:21.838Z,10.98
2023-02-01T21:51:19.690Z,9.68
2023-02-01T21:56:17.772Z,9.90
2023-02-01T22:01:15.180Z,11.88
2023-02-01T22:06:24.059Z,10.82
2023-02-01T22:11:21.399Z,10.93
2023-02-01T22:16:21.654Z,10.50
2023-02-01T22:21:19.749Z,11.07
2023-02-01T22:26:17.481Z,12.10
2023-02-01T22:31:14.863Z,11.07
2023-02-01T22:36:12.336Z,9.32
2023-02-01T22:41:09.680Z,8.98
2023-02-01T22:46:14.688Z,9.73
2023-02-01T22:51:21.011Z,10.90
2023-02-01T22:56:18.524Z,10.90
2023-02-01T23:01:16.860Z,9.77
2023-02-01T23:06:18.553Z,9.88
2023-02-01T23:11:16.105Z,10.07
2023-02-01T23:16:14.359Z,11.52
2023-02-01T23:21:14.945Z,10.38
2023-02-01T23:26:12.102Z,10.02
2023-02-01T23:31:14.388Z,10.45
2023-02-01T23:36:16.129Z,9.43
2023-02-01T23:41:15.134Z,10.55
2023-02-01T23:46:13.526Z,9.00
2023-02-01T23:51:11.340Z,11.35
2023-02-01T23:56:15.789Z,11.35
